Time;durP1;ratioP1;P1;durP2;ratioP2;P2;SDS_P1;SDS_P2;PMS_P1;PMS_P2;Temp;Humidity;BMP_temperature;BMP_pressure;BME280_temperature;BME280_humidity;BME280_pressure;Samples;Min_cycle;Max_cycle;Signal;HPM_P1;HPM_P2
2023/04/14 00:03:00;;;;;;;16.60;8.80;;;;;;;8.47;100.00;99742.71;217575;1291;138774;-94
2023/04/14 00:08:00;;;;;;;15.50;9.80;;;;;;;8.46;100.00;99742.31;218241;1292;138644;-93
2023/04/14 00:13:01;;;;;;;15.90;9.60;;;;;;;8.44;100.00;99735.95;217664;1291;139074;-95
2023/04/14 00:18:02;;;;;;;16.20;9.00;;;;;;;8.44;100.00;99730.77;217987;1291;139189;-94
2023/04/14 00:23:02;;;;;;;16.20;9.20;;;;;;;8.43;100.00;99725.69;217579;1290;138968;-94
2023/04/14 00:28:02;;;;;;;16.90;9.10;;;;;;;8.43;100.00;99723.81;218160;1291;139562;-92
2023/04/14 00:33:03;;;;;;;16.90;8.90;;;;;;;8.42;100.00;99718.40;217646;1291;139225;-94
2023/04/14 00:38:03;;;;;;;17.80;9.80;;;;;;;8.45;100.00;99716.23;218099;1291;138609;-94
2023/04/14 00:43:04;;;;;;;18.80;9.90;;;;;;;8.45;100.00;99709.41;217740;1291;138526;-93
2023/04/14 00:48:05;;;;;;;18.20;9.50;;;;;;;8.46;100.00;99711.61;218066;1291;138859;-95
2023/04/14 00:53:05;;;;;;;16.60;9.60;;;;;;;8.45;100.00;99711.84;217785;1290;139665;-93
2023/04/14 00:58:06;;;;;;;17.00;10.30;;;;;;;8.45;100.00;99713.16;218214;1291;138385;-93
2023/04/14 01:03:07;;;;;;;19.30;10.60;;;;;;;8.46;100.00;99714.27;217447;1291;138886;-93
2023/04/14 01:08:07;;;;;;;18.60;11.00;;;;;;;8.46;100.00;99713.09;218008;1291;139400;-94
2023/04/14 01:13:19;;;;;;;19.70;11.10;;;;;;;8.47;100.00;99716.94;217580;1292;139057;-95
2023/04/14 01:18:29;;;;;;;20.30;11.20;;;;;;;8.49;100.00;99716.58;218060;1291;138764;-93
2023/04/14 01:23:38;;;;;;;19.50;11.10;;;;;;;8.50;100.00;99713.45;217930;1291;139322;-94
2023/04/14 01:28:48;;;;;;;22.00;12.60;;;;;;;8.49;100.00;99710.77;218083;1289;138729;-94
2023/04/14 01:33:57;;;;;;;18.20;11.40;;;;;;;8.48;100.00;99703.72;217743;1291;138887;-94
2023/04/14 01:39:02;;;;;;;22.30;11.50;;;;;;;8.49;100.00;99704.58;217306;1291;139389;-92
2023/04/14 01:44:03;;;;;;;21.50;12.40;;;;;;;8.48;100.00;99704.73;218276;1291;138726;-93
2023/04/14 01:49:05;;;;;;;22.20;13.40;;;;;;;8.47;100.00;99710.20;217614;1290;140448;-93
2023/04/14 01:54:08;;;;;;;20.60;12.00;;;;;;;8.45;100.00;99703.38;218216;1291;138744;-94
2023/04/14 01:59:10;;;;;;;23.00;12.40;;;;;;;8.45;100.00;99704.70;217678;1291;139946;-93
2023/04/14 02:04:11;;;;;;;24.20;13.60;;;;;;;8.44;100.00;99702.19;218224;1290;138596;-93
2023/04/14 02:09:14;;;;;;;21.30;13.20;;;;;;;8.45;100.00;99693.19;217685;1291;139505;-94
2023/04/14 02:14:17;;;;;;;21.80;13.40;;;;;;;8.43;100.00;99686.98;218093;1291;138933;-94
2023/04/14 02:19:20;;;;;;;23.20;12.60;;;;;;;8.43;100.00;99694.66;217714;1291;139351;-93
2023/04/14 02:24:21;;;;;;;24.50;13.40;;;;;;;8.45;100.00;99697.73;218177;1290;138978;-94
2023/04/14 02:29:24;;;;;;;22.10;12.90;;;;;;;8.47;100.00;99695.01;217812;1290;139341;-93
2023/04/14 02:34:29;;;;;;;23.30;13.20;;;;;;;8.47;100.00;99691.25;218239;1291;138644;-92
2023/04/14 02:39:37;;;;;;;22.60;12.50;;;;;;;8.48;100.00;99691.96;217708;1290;139121;-96
2023/04/14 02:44:45;;;;;;;22.70;12.80;;;;;;;8.47;100.00;99686.39;218333;1290;139146;-95
2023/04/14 02:49:48;;;;;;;20.30;12.30;;;;;;;8.49;100.00;99680.77;217743;1290;139217;-94
2023/04/14 02:54:49;;;;;;;21.70;12.80;;;;;;;8.48;100.00;99679.35;218426;1291;138855;-95
2023/04/14 02:59:51;;;;;;;22.10;12.40;;;;;;;8.48;100.00;99669.87;217883;1289;139370;-94
2023/04/14 03:04:52;;;;;;;19.00;11.70;;;;;;;8.48;100.00;99674.11;218218;1290;138619;-95
2023/04/14 03:09:54;;;;;;;21.60;12.30;;;;;;;8.48;100.00;99682.02;217784;1291;138936;-95
2023/04/14 03:14:55;;;;;;;21.00;11.90;;;;;;;8.48;100.00;99680.29;218405;1291;138105;-94
2023/04/14 03:19:56;;;;;;;22.60;13.00;;;;;;;8.48;100.00;99679.81;217856;1290;139528;-96
2023/04/14 03:24:57;;;;;;;22.90;13.10;;;;;;;8.47;100.00;99681.30;218211;1291;139225;-96
2023/04/14 03:30:02;;;;;;;24.30;13.60;;;;;;;8.50;100.00;99694.48;217868;1290;138985;-93
2023/04/14 03:35:03;;;;;;;21.40;13.20;;;;;;;8.51;100.00;99683.77;218387;1291;106052;-94
2023/04/14 03:40:10;;;;;;;22.60;12.90;;;;;;;8.52;100.00;99678.44;217810;1290;139373;-96
2023/04/14 03:45:10;;;;;;;22.30;13.20;;;;;;;8.53;100.00;99672.65;218149;1292;137826;-94
2023/04/14 03:50:14;;;;;;;22.30;13.60;;;;;;;8.54;100.00;99667.00;217843;1292;138804;-93
2023/04/14 03:55:17;;;;;;;22.90;12.10;;;;;;;8.55;100.00;99666.86;218135;1292;139262;-95
2023/04/14 04:00:19;;;;;;;22.60;12.50;;;;;;;8.55;100.00;99669.21;217901;1291;139238;-95
2023/04/14 04:05:21;;;;;;;20.80;12.60;;;;;;;8.56;100.00;99667.09;218509;1290;95936;-95
2023/04/14 04:10:26;;;;;;;22.00;13.00;;;;;;;8.57;100.00;99672.59;217980;1290;139572;-94
2023/04/14 04:15:30;;;;;;;23.30;14.00;;;;;;;8.57;100.00;99671.10;217643;1291;885851;-96
2023/04/14 04:20:31;;;;;;;21.20;12.90;;;;;;;8.57;100.00;99671.80;217977;1291;140143;-94
2023/04/14 04:25:35;;;;;;;21.50;12.50;;;;;;;8.59;100.00;99671.99;218517;1290;138666;-96
2023/04/14 04:30:39;;;;;;;24.30;13.40;;;;;;;8.58;100.00;99674.86;218121;1288;138932;-95
2023/04/14 05:23:06;;;;;;;20.30;11.80;;;;;;;8.62;100.00;99677.48;218313;1288;138964;-89
2023/04/14 05:28:07;;;;;;;21.40;12.40;;;;;;;8.63;100.00;99678.05;218816;1288;139276;-89
2023/04/14 05:33:07;;;;;;;23.10;13.10;;;;;;;8.64;100.00;99672.65;218504;1288;139385;-88
2023/04/14 05:38:07;;;;;;;20.00;12.40;;;;;;;8.64;100.00;99663.71;218804;1288;139364;-90
2023/04/14 05:43:08;;;;;;;21.50;13.00;;;;;;;8.66;100.00;99668.27;218245;1288;138865;-92
2023/04/14 05:48:08;;;;;;;21.50;12.90;;;;;;;8.67;100.00;99670.55;218894;1288;95798;-92
2023/04/14 05:53:10;;;;;;;20.40;12.50;;;;;;;8.68;100.00;99671.33;218341;1288;138519;-91
2023/04/14 05:58:11;;;;;;;23.70;13.90;;;;;;;8.68;100.00;99667.73;218756;1288;138525;-90
2023/04/14 06:03:11;;;;;;;22.10;13.00;;;;;;;8.67;100.00;99666.16;218239;1288;139835;-90
2023/04/14 06:08:12;;;;;;;22.10;13.20;;;;;;;8.66;100.00;99661.84;218858;1288;139027;-91
2023/04/14 06:13:12;;;;;;;25.10;14.50;;;;;;;8.66;100.00;99653.14;218309;1288;138740;-90
2023/04/14 06:18:13;;;;;;;21.60;14.40;;;;;;;8.67;100.00;99646.25;219139;1288;95709;-91
2023/04/14 06:23:14;;;;;;;24.30;14.70;;;;;;;8.67;100.00;99646.95;218482;1288;138446;-91
2023/04/14 06:28:14;;;;;;;24.40;15.30;;;;;;;8.65;100.00;99649.92;218850;1288;138866;-92
2023/04/14 06:33:15;;;;;;;26.90;15.10;;;;;;;8.67;100.00;99641.77;218379;1288;138808;-90
2023/04/14 06:38:15;;;;;;;25.30;16.20;;;;;;;8.72;100.00;99640.48;219026;1288;138829;-91
2023/04/14 06:43:16;;;;;;;27.40;16.80;;;;;;;8.77;100.00;99640.98;218309;1288;139206;-91
2023/04/14 06:48:17;;;;;;;28.50;17.00;;;;;;;8.81;100.00;99639.91;218830;1288;138759;-90
2023/04/14 06:53:18;;;;;;;29.00;18.20;;;;;;;8.83;100.00;99634.81;218395;1288;138139;-92
2023/04/14 06:58:18;;;;;;;32.70;20.30;;;;;;;8.85;100.00;99634.52;218889;1288;138725;-89
2023/04/14 07:03:19;;;;;;;29.30;18.70;;;;;;;8.88;100.00;99628.59;218338;1288;138916;-89
2023/04/14 07:08:20;;;;;;;35.70;21.30;;;;;;;8.90;100.00;99626.70;219480;1288;138893;-89
2023/04/14 07:13:22;;;;;;;34.70;21.50;;;;;;;8.93;100.00;99619.02;218366;1288;138130;-93
2023/04/14 07:18:23;;;;;;;40.50;22.90;;;;;;;8.94;100.00;99615.27;218974;1288;138731;-92
2023/04/14 07:23:24;;;;;;;41.60;23.80;;;;;;;8.96;100.00;99616.00;218592;1288;138469;-96
2023/04/14 07:28:26;;;;;;;39.10;24.20;;;;;;;8.99;100.00;99610.98;219352;1288;96013;-92
2023/04/14 07:33:29;;;;;;;40.00;25.10;;;;;;;9.03;100.00;99608.17;219268;1288;111411;-93
2023/04/14 07:38:31;;;;;;;43.20;26.90;;;;;;;9.08;100.00;99598.31;219233;1288;137562;-93
2023/04/14 07:43:59;;;;;;;38.80;24.40;;;;;;;9.15;100.00;99599.92;218773;1288;138747;-96
2023/04/14 07:54:58;;;;;;;40.90;25.10;;;;;;;9.35;100.00;99606.64;218139;1289;139509;-88
2023/04/14 07:59:58;;;;;;;39.70;25.40;;;;;;;9.47;100.00;99599.77;217822;1289;138654;-88
2023/04/14 08:04:59;;;;;;;42.20;27.00;;;;;;;9.56;100.00;99596.48;218486;1288;138507;-88
2023/04/14 08:09:59;;;;;;;43.60;27.10;;;;;;;9.64;100.00;99594.92;217875;1289;139573;-87
2023/04/14 08:15:00;;;;;;;42.10;25.90;;;;;;;9.75;100.00;99591.25;218354;1288;138807;-87
2023/04/14 08:20:00;;;;;;;41.50;27.20;;;;;;;9.87;100.00;99586.09;217856;1288;139640;-89
2023/04/14 08:25:01;;;;;;;42.70;26.70;;;;;;;9.97;100.00;99581.69;218374;1288;138784;-88
2023/04/14 08:30:01;;;;;;;42.30;25.80;;;;;;;10.08;100.00;99574.25;217867;1288;138490;-88
2023/04/14 08:35:02;;;;;;;37.90;25.20;;;;;;;10.17;100.00;99571.79;218334;1288;139391;-88
2023/04/14 08:40:03;;;;;;;45.00;27.00;;;;;;;10.27;100.00;99572.97;217858;1289;139077;-88
2023/04/14 08:45:05;;;;;;;40.20;25.50;;;;;;;10.38;100.00;99572.23;218334;1288;139054;-88
2023/04/14 08:50:20;;;;;;;38.80;25.10;;;;;;;10.47;100.00;99576.16;217805;1291;139103;-87
2023/04/14 08:55:23;;;;;;;37.00;24.00;;;;;;;10.52;100.00;99571.11;218406;1289;139227;-87
2023/04/14 09:00:24;;;;;;;38.50;25.20;;;;;;;10.55;100.00;99571.10;218084;1288;139770;-88
2023/04/14 09:05:24;;;;;;;38.80;24.00;;;;;;;10.66;100.00;99574.06;218482;1287;139300;-89
2023/04/14 09:10:25;;;;;;;36.80;24.80;;;;;;;10.72;100.00;99574.74;218010;1288;139960;-88
2023/04/14 09:15:27;;;;;;;38.70;23.10;;;;;;;10.78;100.00;99575.84;218383;1288;139166;-87
2023/04/14 09:20:28;;;;;;;34.10;23.00;;;;;;;10.84;100.00;99579.83;217822;1288;139779;-88
2023/04/14 09:25:29;;;;;;;37.10;22.70;;;;;;;10.89;100.00;99574.93;218401;1288;139175;-86
2023/04/14 09:30:30;;;;;;;32.80;22.40;;;;;;;10.92;100.00;99578.69;218111;1288;139664;-87
2023/04/14 09:35:50;;;;;;;34.80;22.40;;;;;;;10.97;100.00;99579.52;218669;1288;107899;-87
2023/04/14 09:40:51;;;;;;;35.60;22.70;;;;;;;11.05;100.00;99586.11;217873;1288;139116;-89
2023/04/14 09:45:53;;;;;;;32.70;21.40;;;;;;;11.15;100.00;99589.21;218429;1288;139085;-91
2023/04/14 09:51:12;;;;;;;33.10;21.50;;;;;;;11.22;100.00;99589.32;217974;1288;139214;-88
2023/04/14 09:56:12;;;;;;;33.80;22.00;;;;;;;11.29;100.00;99588.82;218339;1288;139130;-89
2023/04/14 10:01:15;;;;;;;32.80;21.90;;;;;;;11.33;100.00;99585.58;217677;1288;139328;-87
2023/04/14 10:06:18;;;;;;;31.60;20.90;;;;;;;11.37;100.00;99590.27;218414;1288;96530;-87
2023/04/14 10:11:24;;;;;;;30.80;21.30;;;;;;;11.41;100.00;99589.15;217794;1290;139841;-86
2023/04/14 10:16:26;;;;;;;29.70;20.80;;;;;;;11.48;100.00;99583.12;218286;1289;139080;-88
2023/04/14 10:21:26;;;;;;;33.60;21.50;;;;;;;11.58;100.00;99578.67;217846;1288;139276;-86
2023/04/14 10:26:28;;;;;;;37.30;22.60;;;;;;;11.74;100.00;99574.56;218426;1288;137991;-87
2023/04/14 10:31:37;;;;;;;35.80;23.10;;;;;;;11.89;100.00;99570.58;217733;1288;139512;-87
2023/04/14 10:36:38;;;;;;;34.10;22.90;;;;;;;12.10;100.00;99569.94;218222;1289;139189;-88
2023/04/14 10:41:41;;;;;;;36.20;22.70;;;;;;;12.33;100.00;99560.81;217920;1288;139616;-87
2023/04/14 10:46:42;;;;;;;36.00;23.00;;;;;;;12.59;100.00;99555.95;218370;1289;139472;-87
2023/04/14 10:51:46;;;;;;;35.60;23.30;;;;;;;12.90;100.00;99558.61;217822;1288;139528;-88
2023/04/14 10:57:16;;;;;;;35.40;23.20;;;;;;;13.19;100.00;99555.89;218513;1288;139655;-88
2023/04/14 11:02:30;;;;;;;33.60;23.20;;;;;;;13.54;100.00;99546.52;217863;1288;139113;-87
2023/04/14 11:07:36;;;;;;;29.20;21.70;;;;;;;13.95;100.00;99547.05;218504;1288;139590;-86
2023/04/14 11:12:42;;;;;;;32.10;22.00;;;;;;;14.32;100.00;99540.52;217959;1288;140174;-88
2023/04/14 11:17:43;;;;;;;29.50;20.40;;;;;;;14.68;100.00;99537.77;218687;1288;106809;-87
2023/04/14 11:22:45;;;;;;;27.50;20.60;;;;;;;15.04;100.00;99531.64;218110;1288;139293;-87
2023/04/14 11:27:50;;;;;;;28.80;21.20;;;;;;;15.37;100.00;99529.44;218542;1288;139382;-88
2023/04/14 11:32:53;;;;;;;28.20;19.30;;;;;;;15.67;100.00;99524.06;218031;1288;139355;-87
2023/04/14 11:37:59;;;;;;;29.00;19.70;;;;;;;15.98;99.83;99519.95;218575;1288;139243;-88
2023/04/14 11:43:00;;;;;;;23.20;17.60;;;;;;;16.20;96.52;99517.27;218104;1287;139485;-88
2023/04/14 11:48:03;;;;;;;21.60;15.00;;;;;;;16.38;93.66;99510.68;218702;1287;96634;-86
2023/04/14 11:53:11;;;;;;;22.00;13.80;;;;;;;16.50;88.14;99502.02;217877;1288;139283;-88
2023/04/14 11:58:12;;;;;;;22.20;14.50;;;;;;;16.64;86.65;99503.38;218376;1288;138743;-86
2023/04/14 12:03:13;;;;;;;20.20;14.20;;;;;;;16.80;82.70;99498.06;217931;1288;139807;-89
2023/04/14 12:08:13;;;;;;;19.90;11.70;;;;;;;16.94;81.50;99494.04;218552;1288;138887;-86
2023/04/14 12:13:14;;;;;;;17.10;11.70;;;;;;;17.01;78.96;99489.90;217783;1288;139796;-89
2023/04/14 12:18:15;;;;;;;20.90;11.20;;;;;;;17.11;76.78;99487.22;218678;1288;96195;-90
2023/04/14 12:23:16;;;;;;;17.40;10.40;;;;;;;17.13;76.45;99481.23;217887;1288;139485;-88
2023/04/14 12:28:26;;;;;;;16.80;10.50;;;;;;;17.25;77.13;99477.42;218568;1288;140129;-88
2023/04/14 12:33:29;;;;;;;16.30;10.40;;;;;;;17.33;75.26;99468.33;217981;1288;139431;-89
2023/04/14 12:38:30;;;;;;;16.80;10.40;;;;;;;17.40;73.71;99464.27;218572;1288;139554;-89
2023/04/14 12:43:33;;;;;;;14.40;9.40;;;;;;;17.54;74.65;99470.31;218010;1288;139726;-88
2023/04/14 12:48:39;;;;;;;14.10;10.20;;;;;;;17.68;70.20;99460.56;218329;1288;140836;-88
2023/04/14 12:53:41;;;;;;;;;;;;;;;17.86;70.14;99453.74;217759;1291;138602;-89
2023/04/14 12:58:45;;;;;;;18.00;9.60;;;;;;;18.05;67.05;99452.30;218325;1289;125665;-88
2023/04/14 13:03:49;;;;;;;15.00;8.90;;;;;;;18.28;67.78;99444.97;217612;1290;138994;-90
2023/04/14 13:08:51;;;;;;;14.30;8.30;;;;;;;18.58;65.11;99435.27;217723;1288;138668;-88
2023/04/14 13:13:52;;;;;;;11.80;8.00;;;;;;;18.79;64.80;99434.10;218340;1291;138510;-89
2023/04/14 13:18:52;;;;;;;16.90;9.00;;;;;;;19.02;64.34;99424.98;217952;1288;138728;-88
2023/04/14 13:23:53;;;;;;;13.30;9.00;;;;;;;19.05;61.28;99418.26;218558;1288;96168;-89
2023/04/14 13:28:53;;;;;;;14.10;9.00;;;;;;;18.92;60.86;99411.84;217873;1288;138229;-88
2023/04/14 13:33:54;;;;;;;13.50;8.40;;;;;;;18.83;61.51;99413.93;218403;1289;137838;-88
2023/04/14 13:38:55;;;;;;;12.00;7.20;;;;;;;18.67;60.22;99416.39;217651;1288;138712;-89
2023/04/14 13:43:55;;;;;;;11.20;6.50;;;;;;;18.64;59.87;99415.55;218415;1289;138789;-89
2023/04/14 13:48:57;;;;;;;14.50;6.50;;;;;;;18.72;58.53;99408.70;217862;1288;138546;-88
2023/04/14 13:53:58;;;;;;;11.60;7.10;;;;;;;18.79;56.72;99406.54;218349;1288;96009;-86
2023/04/14 13:58:59;;;;;;;10.60;6.30;;;;;;;18.64;55.70;99400.33;217849;1289;138545;-90
2023/04/14 14:03:59;;;;;;;11.30;6.60;;;;;;;18.56;55.24;99402.01;218376;1288;138419;-92
2023/04/14 14:09:03;;;;;;;10.60;6.70;;;;;;;18.59;56.89;99406.92;217918;1288;138879;-90
2023/04/14 14:14:04;;;;;;;10.40;5.10;;;;;;;18.65;56.27;99406.21;218343;1288;138181;-89
2023/04/14 14:19:07;;;;;;;11.20;5.90;;;;;;;18.61;54.77;99403.31;217895;1291;139074;-89
2023/04/14 14:24:07;;;;;;;10.60;6.90;;;;;;;18.48;55.27;99403.51;218314;1287;96296;-88
2023/04/14 14:29:07;;;;;;;11.10;6.50;;;;;;;18.45;55.62;99400.02;217749;1288;138362;-89
2023/04/14 14:34:08;;;;;;;11.40;6.80;;;;;;;18.35;55.43;99400.07;218283;1288;139482;-89
2023/04/14 14:39:09;;;;;;;11.40;7.00;;;;;;;18.27;56.41;99399.88;217709;1291;138517;-89
2023/04/14 14:44:09;;;;;;;12.80;8.00;;;;;;;18.22;57.08;99399.42;218202;1288;138291;-89
2023/04/14 14:49:12;;;;;;;11.90;7.60;;;;;;;18.15;58.60;99404.90;217704;1288;138814;-88
2023/04/14 14:54:12;;;;;;;15.70;8.20;;;;;;;17.98;60.39;99403.45;218593;1287;96091;-89
2023/04/14 14:59:15;;;;;;;14.20;9.40;;;;;;;17.85;61.78;99401.46;217894;1288;138898;-89
2023/04/14 15:04:15;;;;;;;16.70;9.00;;;;;;;17.73;62.12;99406.64;218615;1288;137906;-89
2023/04/14 15:09:16;;;;;;;13.40;8.90;;;;;;;17.70;63.59;99402.22;218049;1287;139507;-88
2023/04/14 15:14:16;;;;;;;16.10;10.60;;;;;;;17.63;64.89;99407.77;218644;1288;137977;-90
2023/04/14 15:19:18;;;;;;;14.10;9.40;;;;;;;17.55;65.70;99407.96;218049;1288;138729;-89
2023/04/14 15:24:18;;;;;;;16.60;9.70;;;;;;;17.56;64.74;99408.80;218551;1288;96045;-89
2023/04/14 15:29:18;;;;;;;14.20;9.00;;;;;;;17.54;64.05;99411.42;218109;1288;138541;-89
2023/04/14 15:34:20;;;;;;;13.30;9.20;;;;;;;17.50;64.99;99413.08;218597;1288;137915;-87
2023/04/14 15:39:21;;;;;;;16.30;10.20;;;;;;;17.39;64.75;99412.30;217741;1287;138454;-88
2023/04/14 15:44:21;;;;;;;12.90;8.90;;;;;;;17.25;65.43;99410.14;218505;1288;138652;-88
2023/04/14 15:49:21;;;;;;;14.70;9.80;;;;;;;17.15;65.91;99414.90;218053;1288;138925;-87
2023/04/14 15:54:22;;;;;;;15.60;9.90;;;;;;;17.06;65.11;99416.45;218675;1287;96077;-86
2023/04/14 15:59:23;;;;;;;15.30;10.00;;;;;;;16.96;65.92;99417.96;218131;1289;137581;-90
2023/04/14 16:04:24;;;;;;;13.40;9.40;;;;;;;16.89;65.98;99411.73;218595;1288;138158;-86
2023/04/14 16:09:24;;;;;;;15.00;8.50;;;;;;;16.85;66.72;99419.09;218034;1289;140080;-88
2023/04/14 16:14:29;;;;;;;16.40;9.70;;;;;;;16.76;66.97;99424.52;218375;1289;138480;-88
2023/04/14 16:19:30;;;;;;;15.10;10.50;;;;;;;16.69;67.67;99423.87;217922;1287;139020;-88
2023/04/14 16:24:31;;;;;;;12.40;9.00;;;;;;;16.59;67.95;99428.82;218535;1288;139658;-87
2023/04/14 16:29:31;;;;;;;16.10;9.70;;;;;;;16.55;68.67;99428.97;218138;1287;138504;-89
2023/04/14 16:34:32;;;;;;;17.10;10.10;;;;;;;16.44;68.81;99432.66;218566;1288;138144;-86
2023/04/14 16:39:32;;;;;;;14.70;10.00;;;;;;;16.33;69.46;99430.02;217914;1288;139018;-88
2023/04/14 16:44:33;;;;;;;15.50;9.80;;;;;;;16.23;69.82;99436.96;218661;1287;138616;-88
2023/04/14 16:49:33;;;;;;;18.90;12.00;;;;;;;16.16;70.16;99443.74;218085;1289;138835;-90
2023/04/14 16:54:35;;;;;;;15.60;9.80;;;;;;;16.07;70.41;99445.91;218549;1288;138191;-87
2023/04/14 16:59:36;;;;;;;15.40;10.40;;;;;;;16.00;70.74;99452.98;218089;1288;139034;-86
2023/04/14 17:04:36;;;;;;;15.70;10.10;;;;;;;15.91;70.74;99451.96;218341;1288;138270;-86
2023/04/14 17:09:37;;;;;;;14.50;9.50;;;;;;;15.83;71.01;99451.38;217899;1288;138465;-88
2023/04/14 17:14:37;;;;;;;15.90;9.80;;;;;;;15.76;71.38;99444.58;218479;1288;139283;-89
2023/04/14 17:19:37;;;;;;;17.60;9.60;;;;;;;15.69;71.63;99451.83;217704;1288;138497;-88
2023/04/14 17:24:39;;;;;;;18.50;10.00;;;;;;;15.61;71.74;99452.25;218353;1289;139271;-88
2023/04/14 17:29:40;;;;;;;14.50;9.10;;;;;;;15.53;72.22;99455.15;217969;1288;138117;-88
2023/04/14 17:34:41;;;;;;;14.30;9.50;;;;;;;15.44;72.52;99452.52;218372;1288;137885;-86
2023/04/14 17:39:42;;;;;;;13.90;9.20;;;;;;;15.35;73.01;99459.95;217893;1288;138676;-86
2023/04/14 17:44:43;;;;;;;15.20;9.40;;;;;;;15.27;73.43;99466.67;218269;1289;138190;-86
2023/04/14 17:49:43;;;;;;;13.50;8.30;;;;;;;15.18;73.55;99468.86;217768;1288;139038;-88
2023/04/14 17:54:44;;;;;;;14.30;8.90;;;;;;;15.10;74.01;99470.93;218399;1288;138243;-90
2023/04/14 17:59:45;;;;;;;17.00;9.00;;;;;;;15.02;74.26;99474.08;218042;1288;138634;-88
2023/04/14 18:04:46;;;;;;;15.90;8.70;;;;;;;14.92;74.84;99474.52;218272;1288;138599;-85
2023/04/14 18:09:47;;;;;;;15.50;9.90;;;;;;;14.83;75.08;99474.30;217882;1288;139372;-86
2023/04/14 18:14:48;;;;;;;13.60;8.10;;;;;;;14.76;75.39;99478.03;218370;1288;138830;-88
2023/04/14 18:19:49;;;;;;;15.30;9.20;;;;;;;14.68;75.70;99471.46;217864;1288;139844;-86
2023/04/14 18:24:49;;;;;;;13.60;7.40;;;;;;;14.63;75.90;99469.27;218405;1288;138772;-85
2023/04/14 18:29:51;;;;;;;14.00;7.80;;;;;;;14.58;76.30;99468.68;217887;1289;139418;-85
2023/04/14 18:34:52;;;;;;;13.90;8.40;;;;;;;14.51;76.57;99468.41;218353;1291;139265;-85
2023/04/14 18:39:53;;;;;;;14.00;7.40;;;;;;;14.47;76.39;99471.27;217773;1291;139373;-87
2023/04/14 18:44:53;;;;;;;12.80;7.30;;;;;;;14.42;76.74;99474.54;218384;1289;138750;-87
2023/04/14 18:49:54;;;;;;;12.70;7.30;;;;;;;14.34;76.97;99474.52;217767;1289;139239;-86
2023/04/14 18:54:54;;;;;;;13.40;7.40;;;;;;;14.29;77.19;99471.94;218425;1289;138862;-86
2023/04/14 18:59:55;;;;;;;12.50;7.80;;;;;;;14.24;77.28;99470.29;218083;1289;138355;-86
2023/04/14 19:04:55;;;;;;;11.80;7.20;;;;;;;14.21;77.34;99476.04;218421;1288;138711;-86
2023/04/14 19:09:56;;;;;;;12.30;7.60;;;;;;;14.17;77.70;99472.78;217965;1288;139568;-87
2023/04/14 19:14:56;;;;;;;13.50;7.60;;;;;;;14.13;77.80;99470.55;218465;1291;138745;-86
2023/04/14 19:19:57;;;;;;;12.30;7.20;;;;;;;14.10;77.88;99473.13;217857;1289;139618;-87
2023/04/14 19:24:57;;;;;;;12.90;6.80;;;;;;;14.09;78.01;99475.52;218452;1288;138761;-86
2023/04/14 19:29:58;;;;;;;11.60;7.20;;;;;;;14.05;78.47;99479.23;217966;1289;139445;-86
2023/04/14 19:34:58;;;;;;;16.70;7.50;;;;;;;14.03;78.46;99481.55;218441;1288;138672;-87
2023/04/14 19:40:00;;;;;;;11.90;7.20;;;;;;;14.01;78.55;99482.39;217879;1289;139183;-87
2023/04/14 19:45:00;;;;;;;13.00;7.50;;;;;;;14.01;78.72;99483.11;218429;1289;138844;-86
2023/04/14 19:50:01;;;;;;;14.50;7.30;;;;;;;13.98;78.95;99487.65;217742;1292;140231;-85
2023/04/14 19:55:01;;;;;;;17.70;8.80;;;;;;;13.96;79.19;99487.94;218261;1289;138845;-85
2023/04/14 20:00:05;;;;;;;15.30;7.60;;;;;;;13.91;79.25;99487.31;218075;1291;139875;-85
2023/04/14 20:05:06;;;;;;;12.20;6.60;;;;;;;13.88;79.55;99484.29;218425;1288;139416;-85
2023/04/14 20:10:07;;;;;;;12.30;6.50;;;;;;;13.86;79.64;99486.28;217816;1292;139489;-87
2023/04/14 20:15:08;;;;;;;11.10;6.50;;;;;;;13.82;79.64;99491.42;218402;1289;139236;-87
2023/04/14 20:20:08;;;;;;;13.10;6.30;;;;;;;13.78;79.93;99490.77;217868;1289;140223;-86
2023/04/14 20:25:11;;;;;;;11.00;5.60;;;;;;;13.74;79.98;99488.63;218387;1288;138736;-86
2023/04/14 20:30:14;;;;;;;12.00;6.60;;;;;;;13.70;80.08;99494.77;217951;1289;138815;-85
2023/04/14 20:35:14;;;;;;;12.40;6.80;;;;;;;13.66;80.15;99491.61;218415;1289;140393;-86
2023/04/14 20:40:17;;;;;;;12.60;7.30;;;;;;;13.62;80.37;99493.17;217920;1292;138950;-86
2023/04/14 20:45:18;;;;;;;13.60;6.90;;;;;;;13.58;80.12;99492.54;218434;1288;139409;-85
2023/04/14 20:50:18;;;;;;;12.30;6.20;;;;;;;13.54;80.14;99493.38;217955;1289;139520;-85
2023/04/14 20:55:19;;;;;;;16.10;8.30;;;;;;;13.48;80.37;99494.44;218322;1289;138909;-86
2023/04/14 21:00:20;;;;;;;13.00;6.60;;;;;;;13.39;80.68;99501.44;217771;1289;139786;-88
2023/04/14 21:05:20;;;;;;;13.30;7.00;;;;;;;13.28;80.93;99504.27;218324;1289;138295;-85
2023/04/14 21:10:21;;;;;;;12.50;7.00;;;;;;;13.16;81.37;99503.59;217778;1289;138853;-86
2023/04/14 21:15:21;;;;;;;15.00;7.50;;;;;;;13.04;82.06;99509.05;218279;1288;139385;-89
2023/04/14 21:20:23;;;;;;;17.10;7.70;;;;;;;12.94;82.51;99516.02;217694;1289;139244;-87
2023/04/14 21:25:23;;;;;;;13.90;7.30;;;;;;;12.85;82.84;99518.10;218457;1288;139357;-88
2023/04/14 21:30:23;;;;;;;12.70;7.70;;;;;;;12.75;83.40;99515.31;217945;1289;139098;-87
2023/04/14 21:35:24;;;;;;;15.00;7.90;;;;;;;12.65;83.72;99517.79;218426;1288;138505;-86
2023/04/14 21:40:25;;;;;;;14.30;7.20;;;;;;;12.55;84.29;99512.63;217924;1288;139227;-85
2023/04/14 21:45:27;;;;;;;14.10;7.20;;;;;;;12.47;84.63;99508.70;218473;1288;139156;-88
2023/04/14 21:50:28;;;;;;;16.50;8.50;;;;;;;12.39;85.24;99513.44;217750;1290;139021;-87
2023/04/14 21:55:29;;;;;;;13.00;7.10;;;;;;;12.32;85.57;99510.36;218469;1288;138732;-89
2023/04/14 22:00:30;;;;;;;14.50;7.70;;;;;;;12.25;85.78;99512.71;217893;1288;139013;-87
2023/04/14 22:05:30;;;;;;;13.40;7.00;;;;;;;12.18;86.44;99515.09;218331;1288;96709;-88
2023/04/14 22:10:31;;;;;;;14.00;7.20;;;;;;;12.12;86.64;99515.00;217863;1288;138893;-87
2023/04/14 22:15:31;;;;;;;14.30;7.00;;;;;;;12.04;86.88;99511.28;218438;1288;139043;-88
2023/04/14 22:20:32;;;;;;;15.50;7.90;;;;;;;11.99;87.34;99513.84;217892;1288;138885;-92
2023/04/14 22:25:33;;;;;;;12.00;6.30;;;;;;;11.93;87.31;99510.59;218310;1288;139085;-91
2023/04/14 22:30:33;;;;;;;11.80;6.60;;;;;;;11.86;87.62;99517.04;217892;1288;139562;-91
2023/04/14 22:35:34;;;;;;;12.60;6.40;;;;;;;11.79;87.86;99514.65;218610;1288;96765;-91
2023/04/14 22:40:35;;;;;;;12.80;6.70;;;;;;;11.72;88.28;99526.45;217960;1288;141213;-91
2023/04/14 22:45:39;;;;;;;16.60;7.40;;;;;;;11.66;88.43;99533.04;218462;1288;139375;-91
2023/04/14 22:50:39;;;;;;;12.80;7.00;;;;;;;11.60;88.76;99531.83;217827;1288;138942;-91
2023/04/14 22:55:41;;;;;;;13.70;7.40;;;;;;;11.56;88.95;99533.09;218298;1288;138803;-90
2023/04/14 23:00:44;;;;;;;15.10;7.70;;;;;;;11.50;89.37;99526.44;217686;1289;139628;-91
2023/04/14 23:05:44;;;;;;;16.60;7.70;;;;;;;11.43;89.77;99529.00;218316;1288;98521;-91
2023/04/14 23:10:45;;;;;;;14.40;7.90;;;;;;;11.38;90.02;99526.59;217740;1288;138788;-90
2023/04/14 23:15:45;;;;;;;22.80;8.70;;;;;;;11.33;90.12;99528.04;218333;1288;138738;-91
2023/04/14 23:20:46;;;;;;;14.60;7.90;;;;;;;11.28;90.30;99527.21;217782;1288;139332;-90
2023/04/14 23:25:46;;;;;;;15.70;7.90;;;;;;;11.22;90.67;99524.02;218097;1288;140014;-91
2023/04/14 23:30:47;;;;;;;13.80;7.90;;;;;;;11.15;91.31;99523.75;217735;1288;140121;-91
2023/04/14 23:35:47;;;;;;;13.60;8.50;;;;;;;11.12;91.22;99528.17;218657;1289;96237;-91